createdAt,value
2022-12-14T00:03:29.971Z,-7.87
2022-12-14T00:10:53.104Z,-7.79
2022-12-14T00:13:34.378Z,-7.71
2022-12-14T00:16:56.514Z,-7.61
2022-12-14T00:19:29.428Z,-7.56
2022-12-14T00:22:08.873Z,-7.55
2022-12-14T00:29:30.974Z,-7.53
2022-12-14T00:32:10.014Z,-7.55
2022-12-14T00:34:42.663Z,-7.51
2022-12-14T00:41:45.553Z,-7.45
2022-12-14T00:44:17.874Z,-7.45
2022-12-14T00:48:10.263Z,-7.48
2022-12-14T00:50:42.867Z,-7.65
2022-12-14T00:54:13.349Z,-7.88
2022-12-14T01:10:26.887Z,-8.47
2022-12-14T01:13:07.782Z,-8.59
2022-12-14T01:15:41.340Z,-8.72
2022-12-14T01:18:23.953Z,-8.85
2022-12-14T01:21:45.911Z,-8.93
2022-12-14T01:33:54.308Z,-9.20
2022-12-14T01:40:23.080Z,-9.46
2022-12-14T01:42:55.284Z,-9.57
2022-12-14T01:45:27.641Z,-9.64
2022-12-14T01:53:01.071Z,-9.65
2022-12-14T02:04:35.440Z,-9.68
2022-12-14T02:07:06.396Z,-9.70
2022-12-14T02:17:34.144Z,-9.80
2022-12-14T02:20:14.930Z,-9.70
2022-12-14T02:41:41.581Z,-9.17
2022-12-14T02:46:05.633Z,-9.06
2022-12-14T03:05:30.116Z,-8.82
2022-12-14T03:12:22.538Z,-8.92
2022-12-14T03:25:17.414Z,-9.21
2022-12-14T03:32:43.629Z,-9.48
2022-12-14T03:44:15.465Z,-9.86
2022-12-14T03:55:32.219Z,-10.04
2022-12-14T04:11:19.270Z,-9.99
2022-12-14T04:18:23.077Z,-9.99
2022-12-14T04:29:47.455Z,-10.00
2022-12-14T04:44:57.562Z,-10.23
2022-12-14T05:01:35.680Z,-10.35
2022-12-14T05:05:24.372Z,-10.44
2022-12-14T05:16:37.603Z,-10.39
2022-12-14T05:21:02.766Z,-10.40
2022-12-14T05:24:39.407Z,-10.37
2022-12-14T05:36:29.154Z,-10.29
2022-12-14T05:39:18.105Z,-10.24
2022-12-14T05:46:21.128Z,-10.17
2022-12-14T05:48:53.816Z,-10.10
2022-12-14T05:51:33.072Z,-10.04
2022-12-14T05:54:05.533Z,-10.06
2022-12-14T05:56:40.469Z,-10.07
2022-12-14T05:59:25.743Z,-10.05
2022-12-14T06:01:58.170Z,-10.03
2022-12-14T06:08:53.463Z,-10.00
2022-12-14T06:11:26.089Z,-10.00
2022-12-14T06:22:55.299Z,-9.78
2022-12-14T06:26:17.220Z,-9.63
2022-12-14T06:28:56.616Z,-9.49
2022-12-14T06:31:32.033Z,-9.40
2022-12-14T06:34:59.284Z,-9.30
2022-12-14T06:37:31.914Z,-9.20
2022-12-14T06:40:12.996Z,-9.11
2022-12-14T06:43:03.528Z,-9.00
2022-12-14T06:45:57.569Z,-8.91
2022-12-14T06:48:36.125Z,-8.84
2022-12-14T06:51:09.223Z,-8.79
2022-12-14T06:58:15.513Z,-8.62
2022-12-14T07:00:48.013Z,-8.54
2022-12-14T07:03:27.288Z,-8.48
2022-12-14T07:06:01.119Z,-8.39
2022-12-14T07:08:35.367Z,-8.33
2022-12-14T07:11:26.378Z,-8.26
2022-12-14T07:14:06.321Z,-8.20
2022-12-14T07:16:48.237Z,-8.10
2022-12-14T07:19:21.594Z,-8.04
2022-12-14T07:21:53.759Z,-7.98
2022-12-14T07:28:37.113Z,-7.82
2022-12-14T07:35:39.889Z,-7.67
2022-12-14T07:38:19.362Z,-7.60
2022-12-14T07:40:52.348Z,-7.51
2022-12-14T07:43:31.158Z,-7.41
2022-12-14T07:46:06.774Z,-7.33
2022-12-14T07:49:27.954Z,-7.18
2022-12-14T07:52:57.757Z,-7.07
2022-12-14T08:05:14.750Z,-6.55
2022-12-14T08:07:47.536Z,-6.37
2022-12-14T08:14:44.054Z,-6.13
2022-12-14T08:17:52.586Z,-6.00
2022-12-14T08:20:31.356Z,-5.91
2022-12-14T08:23:03.497Z,-5.83
2022-12-14T08:26:35.694Z,-5.71
2022-12-14T08:34:52.139Z,-5.33
2022-12-14T08:37:24.398Z,-5.16
2022-12-14T08:39:56.528Z,-5.02
2022-12-14T08:42:29.260Z,-4.92
2022-12-14T08:45:32.460Z,-4.80
2022-12-14T08:48:11.584Z,-4.55
2022-12-14T08:50:43.792Z,-4.34
2022-12-14T08:57:48.474Z,-3.32
2022-12-14T09:00:21.584Z,-2.35
2022-12-14T09:02:55.477Z,-1.43
2022-12-14T09:09:37.637Z,2.11
2022-12-14T09:12:59.588Z,4.00
2022-12-14T09:16:27.104Z,5.43
2022-12-14T09:18:59.827Z,6.82
2022-12-14T09:21:32.468Z,7.37
2022-12-14T09:24:04.765Z,7.17
2022-12-14T09:30:46.705Z,5.63
2022-12-14T09:33:18.962Z,6.26
2022-12-14T09:39:46.397Z,5.58
2022-12-14T09:43:25.093Z,5.83
2022-12-14T09:50:50.112Z,4.80
2022-12-14T09:54:15.979Z,3.95
2022-12-14T09:56:48.978Z,3.41
2022-12-14T09:59:22.246Z,2.93
2022-12-14T10:14:48.029Z,0.85
2022-12-14T10:17:57.417Z,0.52
2022-12-14T10:38:42.032Z,-0.23
2022-12-14T10:46:40.098Z,0.14
2022-12-14T10:57:36.033Z,0.04
2022-12-14T11:04:03.379Z,-0.10
2022-12-14T11:06:47.748Z,-0.12
2022-12-14T11:09:49.981Z,-0.13
2022-12-14T11:21:34.002Z,-0.01
2022-12-14T11:32:50.051Z,0.34
2022-12-14T11:45:38.665Z,0.89
2022-12-14T11:57:40.786Z,0.32
2022-12-14T12:05:03.864Z,0.08
2022-12-14T12:07:38.636Z,-0.00
2022-12-14T12:11:27.934Z,-0.01
2022-12-14T12:29:43.818Z,1.57
2022-12-14T12:48:31.932Z,0.16
2022-12-14T12:51:07.049Z,-0.17
2022-12-14T12:54:44.569Z,-0.48
2022-12-14T12:57:18.548Z,-0.69
2022-12-14T12:59:53.901Z,-0.84
2022-12-14T13:02:59.993Z,-0.97
2022-12-14T13:05:47.755Z,-1.09
2022-12-14T13:09:02.141Z,-1.19
2022-12-14T13:11:37.394Z,-1.33
2022-12-14T13:15:02.585Z,-1.46
2022-12-14T13:18:56.612Z,-1.60
2022-12-14T13:21:42.252Z,-1.67
2022-12-14T13:25:09.405Z,-1.72
2022-12-14T13:41:44.348Z,-1.97
2022-12-14T13:49:06.608Z,-2.04
2022-12-14T13:56:33.728Z,-2.23
2022-12-14T14:08:42.043Z,-2.88
2022-12-14T14:12:17.423Z,-2.99
2022-12-14T14:23:39.096Z,-3.31
2022-12-14T14:26:22.533Z,-3.34
2022-12-14T14:29:12.855Z,-3.38
2022-12-14T14:31:53.262Z,-3.46
2022-12-14T14:34:37.467Z,-3.53
2022-12-14T14:37:34.077Z,-3.57
2022-12-14T14:40:38.346Z,-3.57
2022-12-14T14:43:35.779Z,-3.59
2022-12-14T14:49:30.528Z,-3.58
2022-12-14T14:52:33.581Z,-3.62
2022-12-14T14:56:02.054Z,-3.62
2022-12-14T14:58:37.425Z,-3.62
2022-12-14T15:01:44.446Z,-3.60
2022-12-14T15:04:23.694Z,-3.59
2022-12-14T15:06:59.406Z,-3.61
2022-12-14T15:09:44.185Z,-3.64
2022-12-14T15:12:32.481Z,-3.66
2022-12-14T15:15:16.174Z,-3.67
2022-12-14T15:17:49.638Z,-3.65
2022-12-14T15:20:57.269Z,-3.63
2022-12-14T15:23:42.448Z,-3.65
2022-12-14T15:26:17.947Z,-3.65
2022-12-14T15:28:58.150Z,-3.68
2022-12-14T15:31:35.776Z,-3.74
2022-12-14T15:34:08.710Z,-3.78
2022-12-14T15:36:45.193Z,-3.81
2022-12-14T15:39:40.320Z,-3.85
2022-12-14T15:42:17.332Z,-3.90
2022-12-14T15:44:55.046Z,-3.94
2022-12-14T15:47:30.043Z,-3.96
2022-12-14T15:50:21.774Z,-3.97
2022-12-14T15:52:56.385Z,-4.00
2022-12-14T16:05:36.762Z,-4.07
2022-12-14T16:16:42.051Z,-4.08
2022-12-14T16:23:43.469Z,-4.09
2022-12-14T16:26:37.628Z,-4.12
2022-12-14T16:29:20.063Z,-4.13
2022-12-14T16:32:14.092Z,-4.13
2022-12-14T16:34:53.119Z,-4.11
2022-12-14T16:37:33.081Z,-4.11
2022-12-14T16:40:10.682Z,-4.12
2022-12-14T16:42:47.114Z,-4.16
2022-12-14T16:45:52.023Z,-4.25
2022-12-14T16:48:25.876Z,-4.29
2022-12-14T16:51:44.538Z,-4.29
2022-12-14T16:54:26.756Z,-4.29
2022-12-14T16:57:04.488Z,-4.28
2022-12-14T16:59:43.481Z,-4.22
2022-12-14T17:02:31.196Z,-4.19
2022-12-14T17:05:12.778Z,-4.17
2022-12-14T17:07:45.037Z,-4.17
2022-12-14T17:10:19.773Z,-4.18
2022-12-14T17:12:54.743Z,-4.18
2022-12-14T17:15:30.631Z,-4.16
2022-12-14T17:18:05.864Z,-4.14
2022-12-14T17:20:40.405Z,-4.11
2022-12-14T17:23:45.808Z,-4.11
2022-12-14T17:26:36.697Z,-4.10
2022-12-14T17:29:25.207Z,-4.10
2022-12-14T17:34:58.111Z,-4.11
2022-12-14T17:37:35.942Z,-4.12
2022-12-14T17:40:10.347Z,-4.13
2022-12-14T17:42:43.964Z,-4.12
